Time;durP1;ratioP1;P1;durP2;ratioP2;P2;SDS_P1;SDS_P2;PMS_P1;PMS_P2;Temp;Humidity;BMP_temperature;BMP_pressure;BME280_temperature;BME280_humidity;BME280_pressure;Samples;Min_cycle;Max_cycle;Signal;HPM_P1;HPM_P2
2022/03/06 00:00:50;;;;;;;8.90;4.90;;;;;;;;;;5095290;28;20227;-59
2022/03/06 00:03:18;;;;;;;13.47;6.50;;;;;;;;;;5094553;28;20198;-59
2022/03/06 00:05:45;;;;;;;11.83;5.57;;;;;;;;;;5095785;28;20241;-58
2022/03/06 00:08:12;;;;;;;10.87;5.77;;;;;;;;;;5098238;28;20226;-59
2022/03/06 00:10:39;;;;;;;15.93;7.30;;;;;;;;;;5098212;28;20198;-59
2022/03/06 00:13:06;;;;;;;13.50;6.30;;;;;;;;;;5098178;28;20194;-59
2022/03/06 00:15:33;;;;;;;13.07;6.00;;;;;;;;;;5098682;28;20248;-59
2022/03/06 00:18:00;;;;;;;10.57;5.53;;;;;;;;;;5098258;28;20207;-59
2022/03/06 00:20:29;;;;;;;10.47;4.60;;;;;;;;;;5098189;28;20328;-59
2022/03/06 00:22:56;;;;;;;4.73;3.17;;;;;;;;;;5098094;28;20237;-59
2022/03/06 00:25:23;;;;;;;4.20;2.90;;;;;;;;;;5098118;28;20714;-59
2022/03/06 00:27:50;;;;;;;4.60;2.53;;;;;;;;;;5097996;28;20254;-59
2022/03/06 00:30:18;;;;;;;4.27;2.80;;;;;;;;;;5098022;28;20226;-59
2022/03/06 00:32:45;;;;;;;4.53;3.03;;;;;;;;;;5096065;28;20282;-59
2022/03/06 00:35:12;;;;;;;9.13;4.50;;;;;;;;;;5097719;28;20214;-59
2022/03/06 00:37:39;;;;;;;9.57;3.93;;;;;;;;;;5098021;28;20293;-59
2022/03/06 00:40:08;;;;;;;8.70;4.43;;;;;;;;;;5097633;28;20529;-59
2022/03/06 00:42:35;;;;;;;13.63;5.87;;;;;;;;;;5097913;28;20586;-59
2022/03/06 00:45:03;;;;;;;9.83;5.93;;;;;;;;;;5097796;28;20289;-59
2022/03/06 00:47:31;;;;;;;12.77;5.83;;;;;;;;;;5097035;28;20245;-59
2022/03/06 00:49:59;;;;;;;14.03;6.30;;;;;;;;;;5097558;28;20237;-59
2022/03/06 00:52:26;;;;;;;10.27;5.63;;;;;;;;;;5097562;28;20210;-59
2022/03/06 00:54:53;;;;;;;10.67;5.53;;;;;;;;;;5097310;28;20226;-59
2022/03/06 00:57:20;;;;;;;9.50;5.10;;;;;;;;;;5096465;28;20217;-59
2022/03/06 00:59:48;;;;;;;10.47;5.27;;;;;;;;;;5097680;28;20187;-59
2022/03/06 01:02:15;;;;;;;10.03;5.17;;;;;;;;;;5097269;28;20221;-59
2022/03/06 01:04:42;;;;;;;8.90;4.70;;;;;;;;;;5097214;28;20225;-59
2022/03/06 01:07:09;;;;;;;10.03;4.37;;;;;;;;;;5097192;28;20222;-59
2022/03/06 01:09:37;;;;;;;8.53;4.40;;;;;;;;;;5097049;28;20218;-59
2022/03/06 01:12:04;;;;;;;10.43;5.20;;;;;;;;;;5097298;28;20209;-59
2022/03/06 01:14:31;;;;;;;10.03;4.33;;;;;;;;;;5097192;28;20227;-59
2022/03/06 01:16:58;;;;;;;10.97;5.60;;;;;;;;;;5096702;28;20282;-59
2022/03/06 01:19:25;;;;;;;10.90;5.00;;;;;;;;;;5096839;28;20663;-59
2022/03/06 01:21:53;;;;;;;11.47;5.37;;;;;;;;;;5096995;28;20290;-59
2022/03/06 01:24:20;;;;;;;9.27;5.50;;;;;;;;;;5097007;28;20284;-59
2022/03/06 01:26:47;;;;;;;9.60;5.70;;;;;;;;;;5096813;28;20203;-59
2022/03/06 01:29:14;;;;;;;11.07;5.50;;;;;;;;;;5097260;28;20388;-59
2022/03/06 01:31:41;;;;;;;10.50;5.13;;;;;;;;;;5096885;28;20650;-59
2022/03/06 01:34:08;;;;;;;12.27;5.90;;;;;;;;;;5097033;28;20265;-59
2022/03/06 01:36:37;;;;;;;13.67;6.13;;;;;;;;;;5096775;28;20233;-59
2022/03/06 01:39:05;;;;;;;11.17;5.20;;;;;;;;;;5096727;28;20272;-59
2022/03/06 01:41:34;;;;;;;13.97;6.10;;;;;;;;;;5095659;28;20214;-59
2022/03/06 01:44:03;;;;;;;10.53;5.53;;;;;;;;;;5096601;28;20229;-59
2022/03/06 01:46:30;;;;;;;11.83;5.47;;;;;;;;;;5096545;28;20226;-59
2022/03/06 01:48:57;;;;;;;8.17;4.30;;;;;;;;;;5096427;28;20311;-59
2022/03/06 01:51:24;;;;;;;11.47;5.10;;;;;;;;;;5096294;28;20595;-59
2022/03/06 01:53:51;;;;;;;9.37;4.90;;;;;;;;;;5096494;28;20376;-59
2022/03/06 01:56:18;;;;;;;9.47;5.50;;;;;;;;;;5096419;28;20285;-59
2022/03/06 01:58:46;;;;;;;8.63;4.83;;;;;;;;;;5095538;28;20202;-59
2022/03/06 02:01:13;;;;;;;9.97;4.83;;;;;;;;;;5095938;28;20237;-59
2022/03/06 02:03:41;;;;;;;10.50;5.70;;;;;;;;;;5096225;28;20635;-59
2022/03/06 02:06:08;;;;;;;11.53;5.07;;;;;;;;;;5096287;28;20252;-59
2022/03/06 02:08:35;;;;;;;9.33;5.40;;;;;;;;;;5095948;28;20223;-59
2022/03/06 02:11:03;;;;;;;9.10;4.93;;;;;;;;;;5096168;28;20222;-59
2022/03/06 02:13:30;;;;;;;9.90;5.63;;;;;;;;;;5096063;28;20309;-59
2022/03/06 02:15:57;;;;;;;11.77;6.03;;;;;;;;;;5095772;28;20658;-59
2022/03/06 02:18:25;;;;;;;12.93;6.17;;;;;;;;;;5096593;28;20212;-59
2022/03/06 02:20:52;;;;;;;12.33;5.97;;;;;;;;;;5095843;28;20230;-59
2022/03/06 02:23:19;;;;;;;14.13;6.47;;;;;;;;;;5095987;28;20207;-59
2022/03/06 02:25:47;;;;;;;14.77;7.37;;;;;;;;;;5095695;28;20213;-59
2022/03/06 02:28:14;;;;;;;11.37;5.20;;;;;;;;;;5094834;28;20218;-59
2022/03/06 02:30:43;;;;;;;11.37;5.70;;;;;;;;;;5095423;28;20234;-59
2022/03/06 02:33:12;;;;;;;10.37;5.37;;;;;;;;;;5095529;28;20230;-59
2022/03/06 02:35:40;;;;;;;10.33;5.00;;;;;;;;;;5095512;28;20692;-59
2022/03/06 02:38:07;;;;;;;6.43;4.03;;;;;;;;;;5095985;28;20218;-59
2022/03/06 02:40:42;;;;;;;7.97;4.23;;;;;;;;;;5095392;28;20222;-59
2022/03/06 02:43:11;;;;;;;6.93;4.30;;;;;;;;;;5095512;28;20197;-59
2022/03/06 02:45:40;;;;;;;5.90;3.83;;;;;;;;;;5095395;28;20660;-59
2022/03/06 02:48:08;;;;;;;6.03;4.23;;;;;;;;;;5095261;28;20222;-59
2022/03/06 02:50:37;;;;;;;6.77;4.20;;;;;;;;;;5095169;28;20658;-59
2022/03/06 02:53:07;;;;;;;9.03;4.37;;;;;;;;;;5095067;28;20234;-59
2022/03/06 02:55:36;;;;;;;7.83;4.53;;;;;;;;;;5095333;28;20202;-59
2022/03/06 02:58:03;;;;;;;8.17;4.40;;;;;;;;;;5095300;28;20545;-59
2022/03/06 03:00:31;;;;;;;6.67;3.93;;;;;;;;;;5094994;28;20258;-59
2022/03/06 03:02:58;;;;;;;8.23;4.37;;;;;;;;;;5095418;28;20273;-59
2022/03/06 03:05:26;;;;;;;6.37;3.83;;;;;;;;;;5095191;28;20639;-59
2022/03/06 03:07:53;;;;;;;7.20;4.03;;;;;;;;;;5095076;28;20253;-59
2022/03/06 03:10:23;;;;;;;8.17;4.47;;;;;;;;;;5095147;28;20202;-59
2022/03/06 03:12:51;;;;;;;6.27;4.30;;;;;;;;;;5095500;28;20195;-59
2022/03/06 03:15:19;;;;;;;8.57;4.53;;;;;;;;;;5094761;28;20230;-59
2022/03/06 03:17:46;;;;;;;8.10;4.43;;;;;;;;;;5095010;28;20198;-59
2022/03/06 03:20:14;;;;;;;7.53;4.80;;;;;;;;;;5094716;28;20253;-59
2022/03/06 03:22:42;;;;;;;7.93;4.80;;;;;;;;;;5094813;28;20723;-59
2022/03/06 03:25:10;;;;;;;13.10;6.20;;;;;;;;;;5094742;28;20640;-59
2022/03/06 03:27:37;;;;;;;8.37;5.03;;;;;;;;;;5094826;28;20203;-59
2022/03/06 03:30:06;;;;;;;8.67;5.20;;;;;;;;;;5095212;28;20222;-60
2022/03/06 03:32:33;;;;;;;10.17;5.37;;;;;;;;;;5094901;28;20529;-59
2022/03/06 03:35:01;;;;;;;8.13;4.50;;;;;;;;;;5094573;28;20276;-59
2022/03/06 03:37:28;;;;;;;7.77;4.93;;;;;;;;;;5095197;28;20210;-59
2022/03/06 03:39:55;;;;;;;11.97;5.20;;;;;;;;;;5096522;28;20206;-59
2022/03/06 03:42:22;;;;;;;6.17;4.40;;;;;;;;;;5098968;28;20222;-59
2022/03/06 03:44:49;;;;;;;10.37;4.90;;;;;;;;;;5098838;28;20240;-59
2022/03/06 03:47:16;;;;;;;5.57;3.90;;;;;;;;;;5098842;28;20210;-59
2022/03/06 03:49:44;;;;;;;9.03;5.03;;;;;;;;;;5098558;28;20326;-59
2022/03/06 03:52:11;;;;;;;8.73;5.07;;;;;;;;;;5098570;28;20202;-59
2022/03/06 03:54:38;;;;;;;7.57;4.67;;;;;;;;;;5098867;28;20233;-59
2022/03/06 03:57:05;;;;;;;8.70;5.27;;;;;;;;;;5098742;28;20222;-59
2022/03/06 03:59:32;;;;;;;7.77;5.00;;;;;;;;;;5098686;28;20678;-59
2022/03/06 04:01:59;;;;;;;9.70;5.40;;;;;;;;;;5098354;28;20237;-59
2022/03/06 04:04:27;;;;;;;8.67;5.33;;;;;;;;;;5098552;28;20229;-59
2022/03/06 04:06:54;;;;;;;11.03;5.93;;;;;;;;;;5098650;28;20583;-59
2022/03/06 04:09:21;;;;;;;8.37;5.40;;;;;;;;;;5098409;28;20249;-59
2022/03/06 04:11:48;;;;;;;11.33;6.10;;;;;;;;;;5098228;28;20285;-59
2022/03/06 04:14:15;;;;;;;11.33;6.13;;;;;;;;;;5098339;28;20233;-59
2022/03/06 04:16:42;;;;;;;8.27;5.40;;;;;;;;;;5098390;28;20631;-59
2022/03/06 04:19:10;;;;;;;8.77;5.30;;;;;;;;;;5099000;28;20226;-59
2022/03/06 04:21:37;;;;;;;11.30;5.43;;;;;;;;;;5098233;28;20202;-59
2022/03/06 04:24:05;;;;;;;10.60;5.83;;;;;;;;;;5098236;28;20226;-59
2022/03/06 04:26:32;;;;;;;8.87;5.70;;;;;;;;;;5098013;28;20659;-59
2022/03/06 04:29:00;;;;;;;10.27;5.27;;;;;;;;;;5098133;28;20261;-59
2022/03/06 04:31:28;;;;;;;8.90;5.40;;;;;;;;;;5097853;28;20293;-59
2022/03/06 04:33:55;;;;;;;9.00;5.13;;;;;;;;;;5097885;28;20586;-59
2022/03/06 04:36:22;;;;;;;8.03;5.03;;;;;;;;;;5098259;28;20207;-59
2022/03/06 04:38:50;;;;;;;8.23;4.53;;;;;;;;;;5097539;28;20249;-59
2022/03/06 04:41:17;;;;;;;6.63;4.13;;;;;;;;;;5097409;28;20203;-59
2022/03/06 04:43:45;;;;;;;10.17;5.20;;;;;;;;;;5097250;28;20626;-59
2022/03/06 04:46:12;;;;;;;10.47;4.57;;;;;;;;;;5097288;28;20218;-59
2022/03/06 04:48:39;;;;;;;8.67;4.53;;;;;;;;;;5097230;28;20301;-59
2022/03/06 04:51:06;;;;;;;8.83;5.00;;;;;;;;;;5096684;28;20206;-59
2022/03/06 04:53:33;;;;;;;12.77;5.33;;;;;;;;;;5097154;28;20226;-59
2022/03/06 04:56:01;;;;;;;9.30;5.20;;;;;;;;;;5097113;28;20573;-59
2022/03/06 04:58:30;;;;;;;7.37;5.20;;;;;;;;;;5097062;28;20234;-58
2022/03/06 05:00:57;;;;;;;7.30;4.83;;;;;;;;;;5097201;28;20206;-59
2022/03/06 05:03:25;;;;;;;7.23;5.13;;;;;;;;;;5096942;28;20286;-59
2022/03/06 05:05:53;;;;;;;7.53;4.73;;;;;;;;;;5097056;28;20284;-59
2022/03/06 05:08:20;;;;;;;7.37;4.60;;;;;;;;;;5096788;28;20254;-58
2022/03/06 05:10:47;;;;;;;7.50;4.57;;;;;;;;;;5097116;28;20542;-59
2022/03/06 05:13:14;;;;;;;9.90;5.20;;;;;;;;;;5096749;28;20652;-59
2022/03/06 05:15:41;;;;;;;7.90;4.87;;;;;;;;;;5096958;28;20203;-59
2022/03/06 05:18:09;;;;;;;9.50;5.40;;;;;;;;;;5096997;28;20245;-59
2022/03/06 05:20:37;;;;;;;8.13;5.67;;;;;;;;;;5096688;28;20209;-59
2022/03/06 05:23:04;;;;;;;9.70;5.03;;;;;;;;;;5095823;28;20221;-59
2022/03/06 05:25:31;;;;;;;9.20;4.80;;;;;;;;;;5096519;28;20218;-59
2022/03/06 05:27:58;;;;;;;6.23;4.23;;;;;;;;;;5096438;28;20244;-59
2022/03/06 05:30:25;;;;;;;6.00;4.20;;;;;;;;;;5096665;28;20230;-59
2022/03/06 05:32:52;;;;;;;7.90;4.30;;;;;;;;;;5096184;28;20269;-59
2022/03/06 05:35:19;;;;;;;7.07;4.13;;;;;;;;;;5096529;28;20225;-59
2022/03/06 05:37:47;;;;;;;7.93;4.90;;;;;;;;;;5096337;28;20248;-59
2022/03/06 05:40:14;;;;;;;7.97;5.20;;;;;;;;;;5096593;28;20206;-59
2022/03/06 05:42:47;;;;;;;6.90;4.60;;;;;;;;;;5089453;27;20238;-59
2022/03/06 05:45:14;;;;;;;8.73;4.63;;;;;;;;;;5095113;28;20234;-58
2022/03/06 05:47:42;;;;;;;5.47;4.23;;;;;;;;;;5095378;28;20261;-58
2022/03/06 05:50:10;;;;;;;8.60;4.20;;;;;;;;;;5095021;28;20313;-60
2022/03/06 05:52:37;;;;;;;6.27;3.90;;;;;;;;;;5095016;28;20273;-58
2022/03/06 05:55:05;;;;;;;6.47;4.60;;;;;;;;;;5095309;28;20223;-59
2022/03/06 05:57:32;;;;;;;6.93;4.37;;;;;;;;;;5093459;28;20674;-52
2022/03/06 05:59:59;;;;;;;5.67;3.90;;;;;;;;;;5092012;28;20223;-61
2022/03/06 06:02:27;;;;;;;5.33;4.17;;;;;;;;;;5085796;28;20663;-57
2022/03/06 06:04:54;;;;;;;8.40;5.03;;;;;;;;;;5091539;28;20219;-58
2022/03/06 06:07:25;;;;;;;6.67;4.33;;;;;;;;;;5093350;28;20225;-59
2022/03/06 06:09:52;;;;;;;6.97;4.43;;;;;;;;;;5093965;28;20595;-58
2022/03/06 06:12:19;;;;;;;8.10;4.57;;;;;;;;;;5092955;27;20253;-60
2022/03/06 06:14:46;;;;;;;6.53;4.00;;;;;;;;;;5091211;28;20675;-60
2022/03/06 06:17:13;;;;;;;8.27;5.03;;;;;;;;;;5093386;27;20218;-56
2022/03/06 06:19:41;;;;;;;8.53;4.90;;;;;;;;;;5093614;28;20249;-52
2022/03/06 06:22:09;;;;;;;7.33;4.30;;;;;;;;;;5093299;28;20710;-60
2022/03/06 06:24:36;;;;;;;8.37;4.70;;;;;;;;;;5093299;28;20528;-60
2022/03/06 06:27:03;;;;;;;6.30;4.50;;;;;;;;;;5092683;28;20210;-61
2022/03/06 06:29:31;;;;;;;7.50;4.47;;;;;;;;;;5091963;27;20321;-61
2022/03/06 06:31:59;;;;;;;6.63;4.83;;;;;;;;;;5088647;28;20251;-59
2022/03/06 06:34:26;;;;;;;8.00;5.30;;;;;;;;;;5088610;28;20238;-60
2022/03/06 06:36:57;;;;;;;7.10;4.60;;;;;;;;;;5093696;28;20249;-54
2022/03/06 06:39:28;;;;;;;6.60;4.80;;;;;;;;;;5089298;28;20218;-59
2022/03/06 06:41:56;;;;;;;6.73;4.43;;;;;;;;;;5090636;28;20265;-60
2022/03/06 06:44:23;;;;;;;8.93;5.20;;;;;;;;;;5092128;28;20225;-58
2022/03/06 06:46:50;;;;;;;8.00;5.50;;;;;;;;;;5092020;28;20261;-59
2022/03/06 06:49:17;;;;;;;9.37;5.90;;;;;;;;;;5090300;28;20660;-59
2022/03/06 06:51:45;;;;;;;7.73;5.13;;;;;;;;;;5092454;28;20265;-59
2022/03/06 06:54:13;;;;;;;6.30;4.80;;;;;;;;;;5090235;27;20242;-59
2022/03/06 06:56:41;;;;;;;7.13;5.10;;;;;;;;;;5091605;28;20265;-59
2022/03/06 06:59:08;;;;;;;8.10;5.70;;;;;;;;;;5092873;27;20662;-51
2022/03/06 07:01:35;;;;;;;11.07;5.87;;;;;;;;;;5094621;28;20276;-58
2022/03/06 07:04:03;;;;;;;8.87;5.60;;;;;;;;;;5093727;28;20226;-57
2022/03/06 07:06:30;;;;;;;10.37;6.20;;;;;;;;;;5081388;28;20266;-56
2022/03/06 07:08:57;;;;;;;13.93;7.23;;;;;;;;;;5073758;28;20238;-59
2022/03/06 07:11:24;;;;;;;8.63;5.67;;;;;;;;;;5073378;28;20310;-55
2022/03/06 07:13:51;;;;;;;8.57;5.53;;;;;;;;;;5073506;28;20318;-59
2022/03/06 07:16:19;;;;;;;38.93;15.87;;;;;;;;;;5076726;28;20254;-59
2022/03/06 07:18:46;;;;;;;20.50;9.73;;;;;;;;;;5089845;27;20206;-60
2022/03/06 07:21:13;;;;;;;10.23;6.00;;;;;;;;;;5092480;28;20246;-58
2022/03/06 07:23:41;;;;;;;10.80;6.37;;;;;;;;;;5092202;28;20214;-58
2022/03/06 07:26:08;;;;;;;9.30;6.17;;;;;;;;;;5091871;28;20227;-60
2022/03/06 07:28:35;;;;;;;9.60;6.40;;;;;;;;;;5092116;28;20246;-60
2022/03/06 07:31:02;;;;;;;11.07;7.10;;;;;;;;;;5091460;28;20222;-60
2022/03/06 07:33:29;;;;;;;9.17;5.67;;;;;;;;;;5091985;27;20241;-59
2022/03/06 07:35:58;;;;;;;7.47;5.27;;;;;;;;;;5092498;28;20214;-61
2022/03/06 07:38:25;;;;;;;8.30;5.20;;;;;;;;;;5092280;28;20587;-60
2022/03/06 07:40:53;;;;;;;8.17;4.87;;;;;;;;;;5090915;28;20594;-60
2022/03/06 07:43:20;;;;;;;7.97;5.13;;;;;;;;;;5089551;28;20627;-60
2022/03/06 07:45:47;;;;;;;9.50;5.20;;;;;;;;;;5091043;28;20218;-60
2022/03/06 07:48:14;;;;;;;10.23;6.93;;;;;;;;;;5091517;28;20236;-58
2022/03/06 07:50:42;;;;;;;9.73;5.40;;;;;;;;;;5092040;28;20230;-59
2022/03/06 07:53:09;;;;;;;6.87;4.97;;;;;;;;;;5091441;28;20237;-58
2022/03/06 07:55:36;;;;;;;15.10;8.00;;;;;;;;;;5091493;28;20238;-59
2022/03/06 07:58:03;;;;;;;7.90;5.07;;;;;;;;;;5091939;28;20226;-58
2022/03/06 08:00:30;;;;;;;12.23;7.50;;;;;;;;;;5092157;27;20234;-59
2022/03/06 08:02:58;;;;;;;23.87;11.60;;;;;;;;;;5092379;28;20222;-58
2022/03/06 08:05:25;;;;;;;18.07;8.83;;;;;;;;;;5089219;28;20257;-59
2022/03/06 08:07:52;;;;;;;11.27;6.63;;;;;;;;;;5092392;28;20219;-59
2022/03/06 08:10:20;;;;;;;8.67;6.70;;;;;;;;;;5090865;28;20629;-60
2022/03/06 08:12:48;;;;;;;8.03;6.17;;;;;;;;;;5092660;28;20770;-59
2022/03/06 08:15:16;;;;;;;8.17;6.00;;;;;;;;;;5092554;28;20272;-52
2022/03/06 08:17:43;;;;;;;7.73;6.37;;;;;;;;;;5091924;28;20553;-59
2022/03/06 08:20:11;;;;;;;7.33;5.87;;;;;;;;;;5091627;28;20272;-60
2022/03/06 08:22:38;;;;;;;8.40;6.07;;;;;;;;;;5093586;28;20223;-58
2022/03/06 08:25:07;;;;;;;8.13;6.13;;;;;;;;;;5091803;28;20238;-60
2022/03/06 08:27:34;;;;;;;7.60;5.33;;;;;;;;;;5095367;28;20230;-59
2022/03/06 08:30:02;;;;;;;8.73;5.47;;;;;;;;;;5095650;28;20329;-57
2022/03/06 08:32:29;;;;;;;7.27;5.23;;;;;;;;;;5096257;28;20223;-57
2022/03/06 08:34:57;;;;;;;7.67;5.27;;;;;;;;;;5094042;28;20230;-59
2022/03/06 08:37:24;;;;;;;6.53;5.10;;;;;;;;;;5096919;28;20225;-59
2022/03/06 08:39:51;;;;;;;8.60;5.67;;;;;;;;;;5096328;28;20677;-59
2022/03/06 08:42:18;;;;;;;36.80;19.80;;;;;;;;;;5095152;28;20222;-60
2022/03/06 08:44:46;;;;;;;30.20;14.67;;;;;;;;;;5095016;28;20318;-59
2022/03/06 08:47:13;;;;;;;10.37;6.67;;;;;;;;;;5092221;28;20585;-60
2022/03/06 08:49:40;;;;;;;20.50;9.17;;;;;;;;;;5094517;28;20253;-59
2022/03/06 08:52:07;;;;;;;9.47;5.67;;;;;;;;;;5094639;28;20556;-59
2022/03/06 08:54:34;;;;;;;29.87;14.43;;;;;;;;;;5095050;28;20253;-59
2022/03/06 08:57:02;;;;;;;10.43;7.40;;;;;;;;;;5094015;28;20233;-59
2022/03/06 08:59:29;;;;;;;9.27;6.07;;;;;;;;;;5093959;27;20230;-59
2022/03/06 09:01:57;;;;;;;11.67;7.00;;;;;;;;;;5095810;28;20226;-58
2022/03/06 09:04:25;;;;;;;13.53;7.40;;;;;;;;;;5094788;28;20607;-60
2022/03/06 09:06:53;;;;;;;10.60;7.37;;;;;;;;;;5092484;28;20608;-59
2022/03/06 09:09:20;;;;;;;12.33;7.43;;;;;;;;;;5094847;28;20594;-61
2022/03/06 09:11:47;;;;;;;14.10;8.57;;;;;;;;;;5095606;28;20219;-60
2022/03/06 09:14:14;;;;;;;8.93;6.57;;;;;;;;;;5095724;28;20250;-60
2022/03/06 09:16:41;;;;;;;8.57;6.70;;;;;;;;;;5095987;28;20572;-60
2022/03/06 09:19:08;;;;;;;9.93;6.87;;;;;;;;;;5096001;28;20250;-61
2022/03/06 09:21:35;;;;;;;9.77;7.07;;;;;;;;;;5095765;28;20246;-60
2022/03/06 09:24:03;;;;;;;10.70;6.93;;;;;;;;;;5095800;28;20247;-61
2022/03/06 09:26:31;;;;;;;9.33;6.63;;;;;;;;;;5095299;27;20218;-60
2022/03/06 09:28:58;;;;;;;9.40;6.73;;;;;;;;;;5095474;28;20242;-61
2022/03/06 09:31:25;;;;;;;8.67;7.00;;;;;;;;;;5095348;28;20534;-62
2022/03/06 09:33:52;;;;;;;12.13;7.00;;;;;;;;;;5095182;28;20713;-60
2022/03/06 09:36:39;;;;;;;11.27;7.27;;;;;;;;;;5095773;28;20272;-60
2022/03/06 09:39:07;;;;;;;8.60;6.90;;;;;;;;;;5095254;28;20249;-61
2022/03/06 09:41:40;;;;;;;9.93;7.27;;;;;;;;;;5094207;27;20237;-60
2022/03/06 09:44:11;;;;;;;11.37;7.07;;;;;;;;;;5095564;28;20276;-61
2022/03/06 09:46:40;;;;;;;10.77;7.73;;;;;;;;;;5095416;27;20260;-60
2022/03/06 09:49:08;;;;;;;12.27;8.83;;;;;;;;;;5095495;28;20679;-60
2022/03/06 09:51:41;;;;;;;13.90;8.80;;;;;;;;;;5095107;27;20693;-60
2022/03/06 09:54:10;;;;;;;10.30;8.00;;;;;;;;;;5094189;28;20560;-60
2022/03/06 09:56:37;;;;;;;12.20;9.10;;;;;;;;;;5094179;27;20647;-62
2022/03/06 09:59:04;;;;;;;11.70;8.57;;;;;;;;;;5091349;28;20230;-60
2022/03/06 10:01:32;;;;;;;12.70;8.80;;;;;;;;;;5093550;28;20268;-61
2022/03/06 10:04:23;;;;;;;12.00;9.17;;;;;;;;;;5093576;28;20218;-61
2022/03/06 10:06:58;;;;;;;13.87;10.37;;;;;;;;;;5093523;27;20689;-61
2022/03/06 10:09:25;;;;;;;12.00;8.97;;;;;;;;;;5092584;28;20221;-61
2022/03/06 10:11:54;;;;;;;12.43;9.50;;;;;;;;;;5094498;28;20250;-61
2022/03/06 10:14:41;;;;;;;14.67;9.87;;;;;;;;;;5094425;28;20233;-61
2022/03/06 10:17:08;;;;;;;14.13;9.03;;;;;;;;;;5088394;28;20234;-61
2022/03/06 10:19:54;;;;;;;11.93;8.93;;;;;;;;;;5090745;28;20215;-61
2022/03/06 10:22:33;;;;;;;13.53;9.83;;;;;;;;;;5092958;28;20261;-61
2022/03/06 10:25:16;;;;;;;13.40;10.97;;;;;;;;;;5092115;28;20218;-61
2022/03/06 10:27:44;;;;;;;20.17;13.87;;;;;;;;;;5092432;28;20230;-60
2022/03/06 10:30:31;;;;;;;13.83;9.97;;;;;;;;;;5090474;28;20218;-60
2022/03/06 10:33:19;;;;;;;14.10;10.67;;;;;;;;;;5092550;28;20612;-61
2022/03/06 10:35:48;;;;;;;11.70;8.90;;;;;;;;;;5090553;28;20276;-60
2022/03/06 10:38:16;;;;;;;12.40;9.13;;;;;;;;;;5093156;28;20230;-60
2022/03/06 10:40:43;;;;;;;13.90;9.57;;;;;;;;;;5092748;28;20218;-60
2022/03/06 10:43:21;;;;;;;14.10;10.00;;;;;;;;;;5093524;28;20325;-60
2022/03/06 10:45:51;;;;;;;16.80;10.67;;;;;;;;;;5092869;28;20253;-59
2022/03/06 10:48:18;;;;;;;16.83;10.37;;;;;;;;;;5092503;28;20248;-61
2022/03/06 10:50:45;;;;;;;12.83;9.47;;;;;;;;;;5088450;28;20622;-59
2022/03/06 10:53:23;;;;;;;11.57;8.70;;;;;;;;;;5092883;28;20214;-60
2022/03/06 10:55:51;;;;;;;15.50;9.70;;;;;;;;;;5090607;28;20717;-60
2022/03/06 10:58:20;;;;;;;15.80;9.30;;;;;;;;;;5092769;28;20299;-60
2022/03/06 11:00:48;;;;;;;13.43;9.60;;;;;;;;;;5092115;28;20279;-60
2022/03/06 11:03:15;;;;;;;14.80;10.23;;;;;;;;;;5092456;27;20670;-60
2022/03/06 11:05:45;;;;;;;12.73;8.80;;;;;;;;;;5091680;28;20738;-60
2022/03/06 11:08:16;;;;;;;18.87;10.43;;;;;;;;;;5087743;28;20317;-60
2022/03/06 11:10:43;;;;;;;13.83;8.97;;;;;;;;;;5091446;28;20241;-60
2022/03/06 11:13:14;;;;;;;14.10;10.50;;;;;;;;;;5086340;28;20595;-60
2022/03/06 11:15:42;;;;;;;13.37;10.03;;;;;;;;;;5090614;28;20214;-59
2022/03/06 11:18:09;;;;;;;15.73;10.77;;;;;;;;;;5091997;28;20671;-59
2022/03/06 11:20:39;;;;;;;12.77;9.90;;;;;;;;;;5093227;28;20736;-60
2022/03/06 11:23:18;;;;;;;16.97;10.57;;;;;;;;;;5091849;28;20222;-59
2022/03/06 11:26:17;;;;;;;13.77;10.13;;;;;;;;;;5090621;28;20242;-60
2022/03/06 11:29:03;;;;;;;15.63;11.03;;;;;;;;;;5091316;28;20214;-60
2022/03/06 11:31:46;;;;;;;13.67;10.37;;;;;;;;;;5091118;28;20682;-60
2022/03/06 11:34:25;;;;;;;16.77;10.00;;;;;;;;;;5090671;28;20226;-59
2022/03/06 11:36:53;;;;;;;15.40;9.53;;;;;;;;;;5094041;27;20253;-59
2022/03/06 11:39:29;;;;;;;13.20;9.37;;;;;;;;;;5114128;28;20229;-59
2022/03/06 11:42:02;;;;;;;15.27;10.27;;;;;;;;;;5113911;27;20276;-60
2022/03/06 11:44:34;;;;;;;15.00;10.37;;;;;;;;;;5093516;28;20193;-58
2022/03/06 11:47:14;;;;;;;14.97;9.80;;;;;;;;;;5090412;28;20209;-58
2022/03/06 11:49:41;;;;;;;16.97;10.67;;;;;;;;;;5090558;28;20194;-58
2022/03/06 11:52:31;;;;;;;14.63;9.93;;;;;;;;;;5094475;28;20230;-57
2022/03/06 11:54:59;;;;;;;16.33;11.27;;;;;;;;;;5094354;28;20268;-58
2022/03/06 11:57:38;;;;;;;15.97;11.17;;;;;;;;;;5092830;28;20295;-60
2022/03/06 12:00:16;;;;;;;15.50;10.70;;;;;;;;;;5094447;28;20553;-59
2022/03/06 12:02:49;;;;;;;14.67;10.27;;;;;;;;;;5098470;28;20222;-60
2022/03/06 12:05:17;;;;;;;16.47;10.70;;;;;;;;;;5098367;28;20248;-59
2022/03/06 12:07:48;;;;;;;14.77;10.97;;;;;;;;;;5097937;28;20231;-60
2022/03/06 12:10:16;;;;;;;15.10;10.57;;;;;;;;;;5098294;28;20225;-59
2022/03/06 12:12:57;;;;;;;18.10;11.43;;;;;;;;;;5098363;28;20238;-58
2022/03/06 12:15:27;;;;;;;14.20;9.97;;;;;;;;;;5098006;28;20585;-60
2022/03/06 12:18:03;;;;;;;15.40;10.57;;;;;;;;;;5098335;28;20225;-60
2022/03/06 12:20:41;;;;;;;22.83;14.20;;;;;;;;;;5098332;28;20186;-59
2022/03/06 12:23:20;;;;;;;19.13;12.20;;;;;;;;;;5091559;28;20718;-60
2022/03/06 12:25:55;;;;;;;21.40;12.27;;;;;;;;;;5094747;28;20509;-60
2022/03/06 12:28:37;;;;;;;17.50;10.93;;;;;;;;;;5093526;28;20245;-61
2022/03/06 12:31:31;;;;;;;17.30;11.80;;;;;;;;;;5095846;28;20742;-60
2022/03/06 12:34:00;;;;;;;13.23;9.63;;;;;;;;;;5096484;28;20637;-60
2022/03/06 12:36:28;;;;;;;24.93;15.23;;;;;;;;;;5095360;28;20322;-61
2022/03/06 12:39:02;;;;;;;14.77;11.37;;;;;;;;;;5096115;28;20253;-61
2022/03/06 12:41:29;;;;;;;15.13;11.20;;;;;;;;;;5096077;28;20271;-60
2022/03/06 12:44:00;;;;;;;15.80;11.50;;;;;;;;;;5096484;27;20256;-61
2022/03/06 12:46:27;;;;;;;16.97;11.43;;;;;;;;;;5096506;28;20222;-60
2022/03/06 12:48:55;;;;;;;16.33;11.20;;;;;;;;;;5095828;28;20376;-60
2022/03/06 12:51:27;;;;;;;16.37;11.27;;;;;;;;;;5093040;28;20238;-60
2022/03/06 12:53:54;;;;;;;15.80;11.03;;;;;;;;;;5095798;28;20261;-60
2022/03/06 12:56:35;;;;;;;12.97;10.47;;;;;;;;;;5093701;28;20261;-59
2022/03/06 12:59:08;;;;;;;16.03;11.07;;;;;;;;;;5095839;27;20234;-59
2022/03/06 13:01:38;;;;;;;17.47;10.47;;;;;;;;;;5093112;28;20219;-59
2022/03/06 13:04:06;;;;;;;15.03;10.83;;;;;;;;;;5095086;28;20708;-59
2022/03/06 13:06:34;;;;;;;15.50;10.10;;;;;;;;;;5095147;28;20630;-59
2022/03/06 13:09:03;;;;;;;15.30;11.40;;;;;;;;;;5095694;28;20254;-59
2022/03/06 13:11:34;;;;;;;13.47;10.23;;;;;;;;;;5095576;28;20299;-60
2022/03/06 13:14:03;;;;;;;15.63;10.97;;;;;;;;;;5092876;28;20303;-58
2022/03/06 13:16:30;;;;;;;15.87;11.93;;;;;;;;;;5096175;28;20309;-60
2022/03/06 13:19:05;;;;;;;15.87;10.73;;;;;;;;;;5096058;28;20254;-59
2022/03/06 13:21:35;;;;;;;14.20;10.87;;;;;;;;;;5095582;28;20225;-58
2022/03/06 13:24:09;;;;;;;20.53;11.70;;;;;;;;;;5095993;28;20280;-58
2022/03/06 13:26:36;;;;;;;16.33;10.77;;;;;;;;;;5096143;28;20234;-58
2022/03/06 13:29:04;;;;;;;18.43;12.93;;;;;;;;;;5095565;28;20234;-58
2022/03/06 13:31:46;;;;;;;15.47;10.07;;;;;;;;;;5095828;28;20230;-60
2022/03/06 13:34:15;;;;;;;14.63;10.47;;;;;;;;;;5095372;28;20266;-62
2022/03/06 13:36:44;;;;;;;19.27;11.70;;;;;;;;;;5095240;28;20607;-59
2022/03/06 13:39:19;;;;;;;15.93;10.90;;;;;;;;;;5095696;28;20318;-59
2022/03/06 13:41:58;;;;;;;14.40;10.10;;;;;;;;;;5094873;28;20275;-58
2022/03/06 13:44:25;;;;;;;15.80;9.93;;;;;;;;;;5092894;28;20257;-59
2022/03/06 13:46:53;;;;;;;18.13;11.33;;;;;;;;;;5091155;28;20661;-61
2022/03/06 13:49:22;;;;;;;19.63;11.87;;;;;;;;;;5093631;28;20381;-61
2022/03/06 13:52:04;;;;;;;17.77;11.00;;;;;;;;;;5093308;28;20226;-60
2022/03/06 13:54:32;;;;;;;16.37;10.27;;;;;;;;;;5093875;28;20307;-61
2022/03/06 13:57:00;;;;;;;22.80;12.87;;;;;;;;;;5094394;28;20678;-62
2022/03/06 13:59:29;;;;;;;20.10;12.87;;;;;;;;;;5094693;28;20227;-61
2022/03/06 14:02:07;;;;;;;21.27;11.87;;;;;;;;;;5095679;28;20231;-60
2022/03/06 14:04:35;;;;;;;16.30;10.83;;;;;;;;;;5093894;28;20250;-59
2022/03/06 14:07:05;;;;;;;18.83;11.80;;;;;;;;;;5094390;28;20234;-58
2022/03/06 14:09:33;;;;;;;26.50;14.10;;;;;;;;;;5093679;27;20242;-60
2022/03/06 14:12:11;;;;;;;17.87;11.77;;;;;;;;;;5092495;28;20633;-59
2022/03/06 14:14:41;;;;;;;18.57;11.33;;;;;;;;;;5092546;27;20230;-58
2022/03/06 14:17:12;;;;;;;21.87;13.20;;;;;;;;;;5093113;28;20685;-61
2022/03/06 14:19:39;;;;;;;19.67;14.37;;;;;;;;;;5092992;28;20258;-59
2022/03/06 14:22:09;;;;;;;17.73;13.73;;;;;;;;;;5091372;28;20317;-58
2022/03/06 14:24:37;;;;;;;18.93;12.97;;;;;;;;;;5092296;28;20387;-60
2022/03/06 14:27:04;;;;;;;18.30;12.53;;;;;;;;;;5094747;28;20601;-59
2022/03/06 14:29:33;;;;;;;14.67;11.03;;;;;;;;;;5094498;28;20250;-59
2022/03/06 14:32:00;;;;;;;16.97;11.53;;;;;;;;;;5094761;28;20235;-59
2022/03/06 14:34:33;;;;;;;25.10;15.10;;;;;;;;;;5094347;28;20254;-59
2022/03/06 14:37:02;;;;;;;21.47;12.93;;;;;;;;;;5094158;28;20239;-59
2022/03/06 14:39:29;;;;;;;19.43;13.07;;;;;;;;;;5094301;28;20254;-56
2022/03/06 14:41:57;;;;;;;19.93;12.80;;;;;;;;;;5094796;28;20676;-60
2022/03/06 14:44:25;;;;;;;15.73;11.33;;;;;;;;;;5091122;28;20269;-56